Time;durP1;ratioP1;P1;durP2;ratioP2;P2;SDS_P1;SDS_P2;PMS_P1;PMS_P2;Temp;Humidity;BMP_temperature;BMP_pressure;BME280_temperature;BME280_humidity;BME280_pressure;Samples;Min_cycle;Max_cycle;Signal;HPM_P1;HPM_P2
2024/04/18 00:00:58;;;;;;;5.38;1.60;;;;;;;;;;5504174;25;20032;-63
2024/04/18 00:03:24;;;;;;;3.30;1.60;;;;;;;;;;5495893;25;20023;-63
2024/04/18 00:05:51;;;;;;;4.80;1.60;;;;;;;;;;5498457;25;20489;-63
2024/04/18 00:08:17;;;;;;;7.45;3.05;;;;;;;;;;5497835;25;20030;-63
2024/04/18 00:10:45;;;;;;;6.03;3.15;;;;;;;;;;5501547;25;20085;-63
2024/04/18 00:13:11;;;;;;;5.10;1.55;;;;;;;;;;5505899;25;19993;-63
2024/04/18 00:15:39;;;;;;;8.23;1.77;;;;;;;;;;5501698;25;20002;-63
2024/04/18 00:18:05;;;;;;;12.13;2.42;;;;;;;;;;5494401;25;20025;-63
2024/04/18 00:20:31;;;;;;;5.40;1.88;;;;;;;;;;5499260;25;20081;-63
2024/04/18 00:22:57;;;;;;;5.03;1.52;;;;;;;;;;5495036;25;21134;-63
2024/04/18 00:25:24;;;;;;;4.45;1.70;;;;;;;;;;5466755;25;19994;-63
2024/04/18 00:27:50;;;;;;;3.72;1.40;;;;;;;;;;5500393;25;20005;-63
2024/04/18 00:30:16;;;;;;;7.13;1.50;;;;;;;;;;5503757;25;20006;-64
2024/04/18 00:32:42;;;;;;;5.50;1.50;;;;;;;;;;5507265;25;20086;-64
2024/04/18 00:35:09;;;;;;;4.68;1.63;;;;;;;;;;5495244;25;20304;-63
2024/04/18 00:37:36;;;;;;;6.43;1.70;;;;;;;;;;5499904;25;19994;-65
2024/04/18 00:40:03;;;;;;;6.47;1.90;;;;;;;;;;5504117;25;21724;-62
2024/04/18 00:42:29;;;;;;;3.40;1.40;;;;;;;;;;5498629;25;20001;-63
2024/04/18 00:44:56;;;;;;;4.10;1.50;;;;;;;;;;5498088;25;22279;-63
2024/04/18 00:47:23;;;;;;;5.30;1.65;;;;;;;;;;5486798;25;19994;-63
2024/04/18 00:49:49;;;;;;;4.47;1.60;;;;;;;;;;5495483;25;20011;-64
2024/04/18 00:52:36;;;;;;;6.03;1.30;;;;;;;;;;5477264;25;20302;-63
2024/04/18 00:55:03;;;;;;;2.38;1.00;;;;;;;;;;5499645;25;19993;-63
2024/04/18 00:57:49;;;;;;;7.32;2.03;;;;;;;;;;5479666;25;20010;-63
2024/04/18 01:00:15;;;;;;;4.85;1.85;;;;;;;;;;5508647;25;20001;-63
2024/04/18 01:02:43;;;;;;;3.60;1.75;;;;;;;;;;5512361;25;20004;-63
2024/04/18 01:05:09;;;;;;;8.77;1.95;;;;;;;;;;5513595;25;19998;-63
2024/04/18 01:07:35;;;;;;;5.13;1.88;;;;;;;;;;5500382;25;19995;-63
2024/04/18 01:10:02;;;;;;;5.93;2.08;;;;;;;;;;5491690;25;20687;-63
2024/04/18 01:12:28;;;;;;;9.27;2.10;;;;;;;;;;5492992;25;20008;-63
2024/04/18 01:14:54;;;;;;;9.68;2.13;;;;;;;;;;5506898;25;19997;-63
2024/04/18 01:17:21;;;;;;;12.48;3.10;;;;;;;;;;5498480;25;20474;-63
2024/04/18 01:19:47;;;;;;;6.57;2.35;;;;;;;;;;5479918;25;20018;-63
2024/04/18 01:22:13;;;;;;;9.95;2.58;;;;;;;;;;5462488;26;19995;-63
2024/04/18 01:24:39;;;;;;;6.80;1.92;;;;;;;;;;5463505;26;20689;-63
2024/04/18 01:27:06;;;;;;;11.23;2.35;;;;;;;;;;5475471;26;20005;-63
2024/04/18 01:29:32;;;;;;;7.45;2.45;;;;;;;;;;5478322;26;20519;-63
2024/04/18 01:31:59;;;;;;;7.20;2.10;;;;;;;;;;5476934;26;20002;-64
2024/04/18 01:34:25;;;;;;;5.38;1.73;;;;;;;;;;5472404;26;20423;-64
2024/04/18 01:36:51;;;;;;;10.48;2.40;;;;;;;;;;5465199;26;20099;-64
2024/04/18 01:39:18;;;;;;;7.30;2.50;;;;;;;;;;5471793;26;20335;-64
2024/04/18 01:41:45;;;;;;;7.15;2.10;;;;;;;;;;5460442;26;20009;-63
2024/04/18 01:44:11;;;;;;;5.55;1.65;;;;;;;;;;5461497;26;20456;-65
2024/04/18 01:46:38;;;;;;;6.95;2.53;;;;;;;;;;5468391;26;20403;-64
2024/04/18 01:49:04;;;;;;;8.77;2.10;;;;;;;;;;5468846;26;20045;-64
2024/04/18 01:51:31;;;;;;;8.82;2.22;;;;;;;;;;5458796;26;19995;-62
2024/04/18 01:53:57;;;;;;;6.28;2.30;;;;;;;;;;5459321;26;20003;-62
2024/04/18 01:56:23;;;;;;;8.23;2.80;;;;;;;;;;5456479;26;20074;-62
2024/04/18 01:58:49;;;;;;;8.75;2.33;;;;;;;;;;5458646;26;20018;-63
2024/04/18 02:01:16;;;;;;;9.20;2.88;;;;;;;;;;5454631;26;19998;-63
2024/04/18 02:03:42;;;;;;;7.22;2.28;;;;;;;;;;5475983;25;20049;-63
2024/04/18 02:06:08;;;;;;;5.97;1.95;;;;;;;;;;5499498;25;20016;-63
2024/04/18 02:08:35;;;;;;;4.07;1.98;;;;;;;;;;5503687;25;19993;-63
2024/04/18 02:11:01;;;;;;;6.00;2.10;;;;;;;;;;5495388;25;20081;-63
2024/04/18 02:13:27;;;;;;;8.45;1.77;;;;;;;;;;5487398;25;19994;-63
2024/04/18 02:15:53;;;;;;;3.67;1.80;;;;;;;;;;5492219;25;20086;-63
2024/04/18 02:18:20;;;;;;;5.22;2.22;;;;;;;;;;5491329;25;20042;-63
2024/04/18 02:20:46;;;;;;;9.27;2.30;;;;;;;;;;5459380;26;20070;-63
2024/04/18 02:23:12;;;;;;;6.65;2.00;;;;;;;;;;5462518;26;20437;-63
2024/04/18 02:25:38;;;;;;;5.57;2.15;;;;;;;;;;5466096;26;20031;-63
2024/04/18 02:28:05;;;;;;;7.47;1.98;;;;;;;;;;5463501;26;20045;-63
2024/04/18 02:30:31;;;;;;;4.10;2.00;;;;;;;;;;5462183;26;19994;-63
2024/04/18 02:32:57;;;;;;;4.43;1.70;;;;;;;;;;5455714;26;20300;-63
2024/04/18 02:35:24;;;;;;;7.55;2.17;;;;;;;;;;5456818;26;19998;-63
2024/04/18 02:37:50;;;;;;;6.30;1.90;;;;;;;;;;5455002;26;20015;-63
2024/04/18 02:40:16;;;;;;;4.57;1.90;;;;;;;;;;5458954;26;19995;-63
2024/04/18 02:42:43;;;;;;;7.55;2.03;;;;;;;;;;5453056;26;20021;-63
2024/04/18 02:45:09;;;;;;;5.78;2.03;;;;;;;;;;5430867;26;20391;-63
2024/04/18 02:47:36;;;;;;;4.65;1.80;;;;;;;;;;5427491;26;20113;-62
2024/04/18 02:50:03;;;;;;;8.52;1.88;;;;;;;;;;5459411;26;19994;-62
2024/04/18 02:52:30;;;;;;;4.95;1.77;;;;;;;;;;5458344;26;20010;-63
2024/04/18 02:54:56;;;;;;;6.05;2.13;;;;;;;;;;5457649;26;20422;-62
2024/04/18 02:57:23;;;;;;;4.40;1.35;;;;;;;;;;5456825;26;19995;-62
2024/04/18 02:59:50;;;;;;;3.78;1.20;;;;;;;;;;5463549;26;20025;-63
2024/04/18 03:02:16;;;;;;;6.35;1.65;;;;;;;;;;5457938;26;19994;-62
2024/04/18 03:04:42;;;;;;;6.70;1.60;;;;;;;;;;5451864;26;20148;-63
2024/04/18 03:07:09;;;;;;;5.28;2.30;;;;;;;;;;5453051;26;20037;-63
2024/04/18 03:09:35;;;;;;;3.95;1.35;;;;;;;;;;5451157;26;20033;-62
2024/04/18 03:12:01;;;;;;;5.53;1.88;;;;;;;;;;5453020;26;20017;-63
2024/04/18 03:14:28;;;;;;;7.60;1.70;;;;;;;;;;5461882;26;20002;-63
2024/04/18 03:16:54;;;;;;;5.68;1.52;;;;;;;;;;5449832;26;20007;-63
2024/04/18 03:19:40;;;;;;;4.50;2.00;;;;;;;;;;5483827;25;20005;-64
2024/04/18 03:22:06;;;;;;;8.45;1.73;;;;;;;;;;5493802;25;19993;-64
2024/04/18 03:24:33;;;;;;;3.60;1.85;;;;;;;;;;5459536;25;20018;-65
2024/04/18 03:26:59;;;;;;;6.65;2.30;;;;;;;;;;5497628;25;20073;-63
2024/04/18 03:29:46;;;;;;;7.97;1.50;;;;;;;;;;5491664;25;20096;-63
2024/04/18 03:32:12;;;;;;;4.55;1.63;;;;;;;;;;5500787;25;20082;-63
2024/04/18 03:34:38;;;;;;;7.90;1.73;;;;;;;;;;5468807;25;20378;-63
2024/04/18 03:37:05;;;;;;;8.13;2.30;;;;;;;;;;5459713;25;21074;-63
2024/04/18 03:39:31;;;;;;;3.58;1.55;;;;;;;;;;5489493;25;20021;-63
2024/04/18 03:41:57;;;;;;;9.27;2.95;;;;;;;;;;5503345;25;19993;-63
2024/04/18 03:44:24;;;;;;;3.75;1.75;;;;;;;;;;5501306;25;20012;-63
2024/04/18 03:47:10;;;;;;;14.55;2.25;;;;;;;;;;5471913;25;20010;-63
2024/04/18 03:49:37;;;;;;;7.20;1.60;;;;;;;;;;5498373;25;20083;-63
2024/04/18 03:52:21;;;;;;;5.80;1.55;;;;;;;;;;5495404;25;20438;-63
2024/04/18 03:54:47;;;;;;;6.88;1.42;;;;;;;;;;5507363;25;20005;-63
2024/04/18 03:57:34;;;;;;;5.60;1.58;;;;;;;;;;5473807;25;20037;-63
2024/04/18 04:00:01;;;;;;;5.60;1.50;;;;;;;;;;5494611;25;19994;-63
2024/04/18 04:02:28;;;;;;;6.75;2.15;;;;;;;;;;5496141;25;20017;-63
2024/04/18 04:04:56;;;;;;;7.20;1.45;;;;;;;;;;5502112;25;20005;-63
2024/04/18 04:07:22;;;;;;;3.40;1.45;;;;;;;;;;5510238;25;20001;-63
2024/04/18 04:10:08;;;;;;;3.20;1.27;;;;;;;;;;5470615;25;20009;-63
2024/04/18 04:12:36;;;;;;;8.05;2.15;;;;;;;;;;5499088;25;20013;-63
2024/04/18 04:15:03;;;;;;;7.75;1.95;;;;;;;;;;5503935;25;20002;-63
2024/04/18 04:17:49;;;;;;;8.02;2.33;;;;;;;;;;5467352;25;20017;-63
2024/04/18 04:20:15;;;;;;;6.82;1.55;;;;;;;;;;5457897;25;20017;-63
2024/04/18 04:22:42;;;;;;;6.85;1.63;;;;;;;;;;5462175;26;20477;-63
2024/04/18 04:25:08;;;;;;;8.25;1.95;;;;;;;;;;5459885;26;20022;-63
2024/04/18 04:27:47;;;;;;;4.03;1.50;;;;;;;;;;5450203;26;20078;-63
2024/04/18 04:30:14;;;;;;;5.53;1.50;;;;;;;;;;5467940;26;20036;-64
2024/04/18 04:32:41;;;;;;;8.18;1.60;;;;;;;;;;5462009;26;20038;-63
2024/04/18 04:35:07;;;;;;;4.53;1.55;;;;;;;;;;5452452;26;20332;-63
2024/04/18 04:37:33;;;;;;;6.95;2.33;;;;;;;;;;5430395;26;19995;-63
2024/04/18 04:40:00;;;;;;;7.38;1.58;;;;;;;;;;5454732;26;20021;-63
2024/04/18 04:42:26;;;;;;;7.35;2.10;;;;;;;;;;5469112;26;20078;-63
2024/04/18 04:44:52;;;;;;;6.53;1.85;;;;;;;;;;5471387;26;20069;-63
2024/04/18 04:47:19;;;;;;;5.97;1.70;;;;;;;;;;5468102;26;20298;-63
2024/04/18 04:49:46;;;;;;;7.40;2.22;;;;;;;;;;5482118;26;20017;-63
2024/04/18 04:52:12;;;;;;;9.60;1.55;;;;;;;;;;5471010;26;19993;-64
2024/04/18 04:54:41;;;;;;;6.18;1.35;;;;;;;;;;5466134;26;20043;-63
2024/04/18 04:57:08;;;;;;;6.32;1.80;;;;;;;;;;5474109;26;20338;-63
2024/04/18 04:59:34;;;;;;;6.68;1.65;;;;;;;;;;5479230;26;20117;-63
2024/04/18 05:02:00;;;;;;;6.50;1.23;;;;;;;;;;5483030;26;20013;-63
2024/04/18 05:04:27;;;;;;;8.63;1.10;;;;;;;;;;5478561;26;20317;-63
2024/04/18 05:06:53;;;;;;;7.65;1.65;;;;;;;;;;5439207;26;20031;-63
2024/04/18 05:09:20;;;;;;;4.15;1.58;;;;;;;;;;5481309;26;19995;-63
2024/04/18 05:11:46;;;;;;;5.05;1.48;;;;;;;;;;5468669;26;19994;-63
2024/04/18 05:14:13;;;;;;;5.03;1.50;;;;;;;;;;5485812;26;20310;-63
2024/04/18 05:16:39;;;;;;;5.15;1.23;;;;;;;;;;5484036;26;20002;-63
2024/04/18 05:19:06;;;;;;;4.45;1.95;;;;;;;;;;5472936;25;20445;-63
2024/04/18 05:21:32;;;;;;;7.88;1.42;;;;;;;;;;5458635;26;19999;-63
2024/04/18 05:23:58;;;;;;;5.70;1.08;;;;;;;;;;5460949;26;19994;-63
2024/04/18 05:26:31;;;;;;;8.80;1.33;;;;;;;;;;5462557;26;20014;-63
2024/04/18 05:31:47;;;;;;;4.60;1.13;;;;;;;;;;5464120;26;20335;-63
2024/04/18 05:34:14;;;;;;;8.25;1.27;;;;;;;;;;5462931;26;20016;-62
2024/04/18 05:36:40;;;;;;;8.95;1.23;;;;;;;;;;5459907;26;20010;-62
2024/04/18 05:39:06;;;;;;;3.08;1.10;;;;;;;;;;5458015;26;20427;-63
2024/04/18 05:41:33;;;;;;;5.88;1.15;;;;;;;;;;5468694;26;20009;-62
2024/04/18 05:43:59;;;;;;;2.88;1.08;;;;;;;;;;5472615;26;20079;-63
2024/04/18 05:46:25;;;;;;;7.20;1.48;;;;;;;;;;5471385;26;20282;-63
2024/04/18 05:48:52;;;;;;;6.07;1.38;;;;;;;;;;5479763;26;19997;-62
2024/04/18 05:51:19;;;;;;;9.13;2.28;;;;;;;;;;5479641;26;19997;-62
2024/04/18 05:53:45;;;;;;;7.22;1.60;;;;;;;;;;5473346;26;19995;-62
2024/04/18 05:56:11;;;;;;;6.40;1.50;;;;;;;;;;5469815;26;19994;-62
2024/04/18 05:58:38;;;;;;;6.97;1.20;;;;;;;;;;5465287;26;20002;-63
2024/04/18 06:01:05;;;;;;;5.60;1.42;;;;;;;;;;5468770;26;20117;-63
2024/04/18 06:03:32;;;;;;;6.25;1.80;;;;;;;;;;5436987;26;20091;-63
2024/04/18 06:05:59;;;;;;;7.00;1.55;;;;;;;;;;5465864;26;20010;-62
2024/04/18 06:08:25;;;;;;;4.10;1.15;;;;;;;;;;5470267;26;20001;-62
2024/04/18 06:10:52;;;;;;;10.60;1.98;;;;;;;;;;5492778;25;19998;-62
2024/04/18 06:13:19;;;;;;;8.38;1.88;;;;;;;;;;5465378;26;19994;-62
2024/04/18 06:15:46;;;;;;;7.72;1.75;;;;;;;;;;5470695;26;20863;-62
2024/04/18 06:18:13;;;;;;;7.57;1.85;;;;;;;;;;5458929;26;19993;-63
2024/04/18 06:20:40;;;;;;;6.53;1.63;;;;;;;;;;5440265;26;20417;-63
2024/04/18 06:23:06;;;;;;;11.32;2.00;;;;;;;;;;5468264;26;20013;-63
2024/04/18 06:25:35;;;;;;;6.53;1.50;;;;;;;;;;5465213;26;22381;-63
2024/04/18 06:28:02;;;;;;;6.50;1.48;;;;;;;;;;5463534;26;19999;-63
2024/04/18 06:30:29;;;;;;;7.43;1.40;;;;;;;;;;5466680;26;20009;-64
2024/04/18 06:32:55;;;;;;;9.95;1.20;;;;;;;;;;5465210;26;19995;-68
2024/04/18 06:35:22;;;;;;;3.60;1.15;;;;;;;;;;5465098;26;20335;-63
2024/04/18 06:37:48;;;;;;;4.88;1.05;;;;;;;;;;5462866;26;19994;-64
2024/04/18 06:40:15;;;;;;;5.05;1.05;;;;;;;;;;5459277;26;19995;-63
2024/04/18 06:42:41;;;;;;;6.80;1.30;;;;;;;;;;5476784;26;20068;-63
2024/04/18 06:45:08;;;;;;;5.97;1.30;;;;;;;;;;5464011;26;20862;-63
2024/04/18 06:47:34;;;;;;;3.80;1.08;;;;;;;;;;5459927;26;20018;-63
2024/04/18 06:50:00;;;;;;;5.72;0.82;;;;;;;;;;5447424;26;20009;-63
2024/04/18 06:52:27;;;;;;;7.30;0.98;;;;;;;;;;5465252;26;21554;-63
2024/04/18 06:54:54;;;;;;;5.13;1.00;;;;;;;;;;5477472;26;20109;-63
2024/04/18 06:57:20;;;;;;;5.68;1.13;;;;;;;;;;5481420;26;20081;-63
2024/04/18 06:59:46;;;;;;;4.70;0.88;;;;;;;;;;5491660;25;20005;-64
2024/04/18 07:02:12;;;;;;;5.43;0.70;;;;;;;;;;5437931;26;20448;-63
2024/04/18 07:04:39;;;;;;;2.80;0.85;;;;;;;;;;5474169;26;19995;-63
2024/04/18 07:07:06;;;;;;;4.43;1.00;;;;;;;;;;5479392;26;20325;-63
2024/04/18 07:09:33;;;;;;;7.90;1.00;;;;;;;;;;5478473;26;20009;-63
2024/04/18 07:12:00;;;;;;;9.02;1.20;;;;;;;;;;5465641;26;19994;-64
2024/04/18 07:14:26;;;;;;;6.47;1.30;;;;;;;;;;5459280;26;20028;-63
2024/04/18 07:16:52;;;;;;;5.90;1.00;;;;;;;;;;5432586;26;20038;-63
2024/04/18 07:19:19;;;;;;;4.30;1.00;;;;;;;;;;5460740;26;21890;-63
2024/04/18 07:21:45;;;;;;;8.10;1.27;;;;;;;;;;5457781;26;20006;-63
2024/04/18 07:24:12;;;;;;;3.85;1.02;;;;;;;;;;5450516;26;20096;-63
2024/04/18 07:26:38;;;;;;;4.78;0.98;;;;;;;;;;5457214;26;20650;-63
2024/04/18 07:29:04;;;;;;;3.67;0.82;;;;;;;;;;5449652;26;19995;-63
2024/04/18 07:31:31;;;;;;;6.97;1.40;;;;;;;;;;5453911;26;20017;-63
2024/04/18 07:33:57;;;;;;;9.25;1.23;;;;;;;;;;5461508;26;20088;-64
2024/04/18 07:36:24;;;;;;;5.03;1.08;;;;;;;;;;5460218;26;20006;-63
2024/04/18 07:38:51;;;;;;;5.78;1.17;;;;;;;;;;5455956;26;20007;-64
2024/04/18 07:41:18;;;;;;;8.88;1.63;;;;;;;;;;5455369;26;20482;-63
2024/04/18 07:43:44;;;;;;;6.10;1.15;;;;;;;;;;5460276;26;20064;-63
2024/04/18 07:46:12;;;;;;;6.82;1.00;;;;;;;;;;5457186;26;20013;-63
2024/04/18 07:48:39;;;;;;;3.80;1.00;;;;;;;;;;5459931;26;19994;-63
2024/04/18 07:51:06;;;;;;;5.90;1.20;;;;;;;;;;5458404;26;20006;-63
2024/04/18 07:53:33;;;;;;;6.68;0.90;;;;;;;;;;5420280;26;20076;-64
2024/04/18 07:55:59;;;;;;;6.93;1.10;;;;;;;;;;5448095;26;20005;-64
2024/04/18 07:58:26;;;;;;;3.78;1.00;;;;;;;;;;5454475;26;20061;-64
2024/04/18 08:00:53;;;;;;;7.20;1.30;;;;;;;;;;5457516;26;19999;-64
2024/04/18 08:03:19;;;;;;;7.38;1.17;;;;;;;;;;5459212;26;20430;-63
2024/04/18 08:05:47;;;;;;;8.52;1.45;;;;;;;;;;5459854;26;19998;-64
2024/04/18 08:08:13;;;;;;;8.35;1.98;;;;;;;;;;5455372;26;19995;-63
2024/04/18 08:10:40;;;;;;;7.05;1.35;;;;;;;;;;5465777;26;20074;-63
2024/04/18 08:13:06;;;;;;;7.03;1.45;;;;;;;;;;5461578;26;19994;-64
2024/04/18 08:15:39;;;;;;;7.05;1.23;;;;;;;;;;5460138;26;20007;-64
2024/04/18 08:18:05;;;;;;;5.65;1.20;;;;;;;;;;5450209;25;20015;-64
2024/04/18 08:20:32;;;;;;;9.00;1.25;;;;;;;;;;5455142;26;20013;-64
2024/04/18 08:22:58;;;;;;;8.65;2.03;;;;;;;;;;5466477;26;20290;-63
2024/04/18 08:25:25;;;;;;;6.30;1.00;;;;;;;;;;5459748;26;20009;-63
2024/04/18 08:27:51;;;;;;;6.60;0.95;;;;;;;;;;5462078;26;20810;-64
2024/04/18 08:30:18;;;;;;;4.45;1.05;;;;;;;;;;5465727;26;20110;-63
2024/04/18 08:32:44;;;;;;;4.90;1.10;;;;;;;;;;5445334;26;20039;-64
2024/04/18 08:35:11;;;;;;;5.25;1.00;;;;;;;;;;5458774;26;20037;-64
2024/04/18 08:37:38;;;;;;;10.43;1.33;;;;;;;;;;5453948;26;20017;-63
2024/04/18 08:40:04;;;;;;;5.30;1.17;;;;;;;;;;5458046;26;20006;-63
2024/04/18 08:42:31;;;;;;;8.02;1.30;;;;;;;;;;5459382;26;20010;-63
2024/04/18 08:44:58;;;;;;;5.00;1.60;;;;;;;;;;5457458;26;19995;-64
2024/04/18 08:47:25;;;;;;;12.40;1.65;;;;;;;;;;5447835;26;20006;-64
2024/04/18 08:49:53;;;;;;;10.02;1.20;;;;;;;;;;5464897;26;20014;-64
2024/04/18 08:52:19;;;;;;;5.97;1.05;;;;;;;;;;5457021;26;20011;-64
2024/04/18 08:54:46;;;;;;;7.90;1.60;;;;;;;;;;5473546;26;19998;-64
2024/04/18 08:57:15;;;;;;;7.13;1.20;;;;;;;;;;5462483;26;19995;-63
2024/04/18 08:59:43;;;;;;;7.93;1.45;;;;;;;;;;5467447;26;20088;-64
2024/04/18 09:02:09;;;;;;;6.68;1.13;;;;;;;;;;5420431;26;20452;-64
2024/04/18 09:04:36;;;;;;;6.10;1.10;;;;;;;;;;5473131;26;20030;-64
2024/04/18 09:07:03;;;;;;;5.88;0.98;;;;;;;;;;5474854;26;19994;-64
2024/04/18 09:09:29;;;;;;;12.20;1.63;;;;;;;;;;5453739;26;20002;-63
2024/04/18 09:11:56;;;;;;;5.15;1.35;;;;;;;;;;5459468;26;20345;-64
2024/04/18 09:14:22;;;;;;;6.60;1.65;;;;;;;;;;5449067;26;20031;-64
2024/04/18 09:16:48;;;;;;;10.75;1.23;;;;;;;;;;5441364;26;20458;-64
2024/04/18 09:19:15;;;;;;;5.13;1.27;;;;;;;;;;5467308;26;20009;-63
2024/04/18 09:21:41;;;;;;;11.85;1.67;;;;;;;;;;5463231;26;19994;-64
2024/04/18 09:24:07;;;;;;;7.70;1.00;;;;;;;;;;5462146;26;19994;-71
2024/04/18 09:26:34;;;;;;;7.18;1.40;;;;;;;;;;5436802;26;20093;-65
2024/04/18 09:29:00;;;;;;;5.65;1.10;;;;;;;;;;5459064;26;20006;-66
2024/04/18 09:31:27;;;;;;;6.00;1.20;;;;;;;;;;5462551;26;20507;-66
2024/04/18 09:33:53;;;;;;;5.18;1.20;;;;;;;;;;5466763;26;20090;-65
2024/04/18 09:36:20;;;;;;;4.90;0.95;;;;;;;;;;5465996;26;20006;-66
2024/04/18 09:38:47;;;;;;;9.30;1.95;;;;;;;;;;5464120;26;20133;-66
2024/04/18 09:41:16;;;;;;;4.43;1.20;;;;;;;;;;5464808;26;20477;-66
2024/04/18 09:43:58;;;;;;;7.65;1.27;;;;;;;;;;5465481;26;20294;-65
2024/04/18 09:46:25;;;;;;;4.88;1.38;;;;;;;;;;5461752;26;20108;-66
2024/04/18 09:48:53;;;;;;;7.97;1.20;;;;;;;;;;5465303;26;20005;-66
2024/04/18 09:51:20;;;;;;;7.43;1.48;;;;;;;;;;5421768;26;20010;-67
2024/04/18 09:53:47;;;;;;;5.65;1.13;;;;;;;;;;5465757;26;20002;-66
2024/04/18 09:56:14;;;;;;;7.03;1.67;;;;;;;;;;5464351;26;20032;-66
2024/04/18 09:58:41;;;;;;;5.28;1.45;;;;;;;;;;5464980;26;20094;-66
2024/04/18 10:01:09;;;;;;;10.23;2.13;;;;;;;;;;5466897;26;20013;-66
2024/04/18 10:03:35;;;;;;;7.95;1.50;;;;;;;;;;5466838;26;20040;-66
2024/04/18 10:06:04;;;;;;;8.70;1.52;;;;;;;;;;5468460;26;19995;-66
2024/04/18 10:08:37;;;;;;;7.50;1.13;;;;;;;;;;5437272;26;20006;-66
2024/04/18 10:11:04;;;;;;;5.25;1.33;;;;;;;;;;5466395;26;20008;-66
2024/04/18 10:13:31;;;;;;;8.27;1.95;;;;;;;;;;5469436;26;20458;-66
2024/04/18 10:16:09;;;;;;;5.68;1.33;;;;;;;;;;5462185;26;20078;-65
2024/04/18 10:18:36;;;;;;;4.32;1.15;;;;;;;;;;5466663;26;20013;-65
2024/04/18 10:21:08;;;;;;;6.13;1.15;;;;;;;;;;5431701;26;20434;-65
2024/04/18 10:23:35;;;;;;;10.30;2.13;;;;;;;;;;5469302;26;20016;-65
2024/04/18 10:26:01;;;;;;;8.98;1.60;;;;;;;;;;5461628;26;20006;-65
2024/04/18 10:28:30;;;;;;;7.93;1.73;;;;;;;;;;5459802;26;19995;-65
2024/04/18 10:31:03;;;;;;;7.15;1.35;;;;;;;;;;5464957;26;20561;-65
2024/04/18 10:33:29;;;;;;;9.95;2.03;;;;;;;;;;5467079;26;20071;-64
2024/04/18 10:35:56;;;;;;;10.65;1.75;;;;;;;;;;5433920;26;20379;-65
2024/04/18 10:38:24;;;;;;;7.07;1.50;;;;;;;;;;5464728;26;20472;-65
2024/04/18 10:41:00;;;;;;;11.35;1.92;;;;;;;;;;5463166;26;20010;-65
2024/04/18 10:43:27;;;;;;;10.13;1.58;;;;;;;;;;5463199;26;20112;-65
2024/04/18 10:45:55;;;;;;;9.50;1.40;;;;;;;;;;5460791;26;20027;-65
2024/04/18 10:48:21;;;;;;;10.18;1.08;;;;;;;;;;5433941;26;19994;-65
2024/04/18 10:50:50;;;;;;;8.77;1.60;;;;;;;;;;5463035;26;20349;-66
2024/04/18 10:53:16;;;;;;;7.85;1.50;;;;;;;;;;5468960;26;19994;-66
2024/04/18 10:55:42;;;;;;;7.70;1.50;;;;;;;;;;5431591;26;19994;-66
2024/04/18 10:58:11;;;;;;;8.63;1.55;;;;;;;;;;5461352;26;20010;-65
2024/04/18 11:00:39;;;;;;;9.23;1.50;;;;;;;;;;5463976;26;20134;-66
2024/04/18 11:03:05;;;;;;;8.55;1.77;;;;;;;;;;5462274;26;19995;-66
2024/04/18 11:05:31;;;;;;;10.90;2.00;;;;;;;;;;5462701;26;20017;-66
2024/04/18 11:07:58;;;;;;;10.30;1.75;;;;;;;;;;5464195;26;20005;-65
2024/04/18 11:10:26;;;;;;;16.55;1.77;;;;;;;;;;5465626;26;19995;-65
2024/04/18 11:12:53;;;;;;;11.43;1.80;;;;;;;;;;5463303;26;20465;-65
2024/04/18 11:15:19;;;;;;;6.30;1.20;;;;;;;;;;5462596;26;20047;-65
2024/04/18 11:17:45;;;;;;;8.40;1.90;;;;;;;;;;5468877;26;20434;-65
2024/04/18 11:20:12;;;;;;;9.93;1.70;;;;;;;;;;5430549;26;19995;-65
2024/04/18 11:22:39;;;;;;;9.70;1.90;;;;;;;;;;5452274;26;20106;-65
2024/04/18 11:25:07;;;;;;;10.38;1.50;;;;;;;;;;5458621;26;20009;-66
2024/04/18 11:27:36;;;;;;;6.60;1.40;;;;;;;;;;5455104;26;20066;-66
2024/04/18 11:30:05;;;;;;;14.07;1.58;;;;;;;;;;5454033;26;20009;-66
2024/04/18 11:32:32;;;;;;;10.38;2.42;;;;;;;;;;5464740;26;19994;-66
2024/04/18 11:34:59;;;;;;;6.45;1.50;;;;;;;;;;5466566;26;20005;-66
2024/04/18 11:37:25;;;;;;;6.75;1.60;;;;;;;;;;5460221;26;20446;-66
2024/04/18 11:39:55;;;;;;;6.32;1.35;;;;;;;;;;5464885;26;20006;-66
2024/04/18 11:42:22;;;;;;;12.23;2.10;;;;;;;;;;5464260;26;20085;-66
2024/04/18 11:44:48;;;;;;;9.65;2.00;;;;;;;;;;5459378;26;20070;-65
2024/04/18 11:47:14;;;;;;;8.70;1.77;;;;;;;;;;5437095;26;20006;-65
2024/04/18 11:49:42;;;;;;;10.88;1.75;;;;;;;;;;5463136;26;20006;-66
2024/04/18 11:52:08;;;;;;;10.52;2.03;;;;;;;;;;5469838;26;20124;-65
2024/04/18 11:54:34;;;;;;;13.65;2.35;;;;;;;;;;5431829;26;20002;-65
2024/04/18 11:57:01;;;;;;;10.15;1.70;;;;;;;;;;5467633;26;20067;-65
2024/04/18 11:59:28;;;;;;;11.05;1.92;;;;;;;;;;5468500;26;20083;-65
2024/04/18 12:01:54;;;;;;;8.02;1.50;;;;;;;;;;5464972;26;20359;-65
2024/04/18 12:04:21;;;;;;;8.63;1.80;;;;;;;;;;5430347;26;20006;-65
2024/04/18 12:06:47;;;;;;;9.93;1.70;;;;;;;;;;5461484;26;20009;-65
2024/04/18 12:09:13;;;;;;;9.13;1.50;;;;;;;;;;5466583;26;20002;-65
2024/04/18 12:11:39;;;;;;;12.90;1.98;;;;;;;;;;5435195;26;20749;-65
2024/04/18 12:14:06;;;;;;;9.50;1.55;;;;;;;;;;5465014;26;20070;-65
2024/04/18 12:16:32;;;;;;;10.05;1.50;;;;;;;;;;5456227;26;20338;-65
2024/04/18 12:18:58;;;;;;;7.38;1.65;;;;;;;;;;5420622;26;20014;-65
2024/04/18 12:21:25;;;;;;;13.05;2.42;;;;;;;;;;5457990;26;20014;-65
2024/04/18 12:23:51;;;;;;;10.25;2.00;;;;;;;;;;5456645;26;20123;-65
2024/04/18 12:26:17;;;;;;;16.33;2.88;;;;;;;;;;5456758;26;20454;-65
2024/04/18 12:28:44;;;;;;;10.98;2.08;;;;;;;;;;5463707;26;20003;-65
2024/04/18 12:31:10;;;;;;;9.13;1.40;;;;;;;;;;5462017;26;20009;-65
2024/04/18 12:33:36;;;;;;;11.73;1.92;;;;;;;;;;5464344;26;20442;-65
2024/04/18 12:36:03;;;;;;;14.57;1.77;;;;;;;;;;5459643;26;20006;-66
2024/04/18 12:38:29;;;;;;;8.65;1.60;;;;;;;;;;5457005;26;20461;-66
2024/04/18 12:40:55;;;;;;;9.40;1.85;;;;;;;;;;5460434;26;20095;-65
2024/04/18 12:43:22;;;;;;;8.95;1.50;;;;;;;;;;5462894;26;20018;-64
2024/04/18 12:45:48;;;;;;;12.85;1.85;;;;;;;;;;5474292;26;20071;-64
2024/04/18 12:48:14;;;;;;;9.50;2.47;;;;;;;;;;5474603;26;20398;-64
2024/04/18 12:50:41;;;;;;;11.43;1.70;;;;;;;;;;5476194;26;20016;-64
2024/04/18 12:53:07;;;;;;;7.60;1.60;;;;;;;;;;5485036;26;20001;-64
2024/04/18 12:55:35;;;;;;;8.35;1.50;;;;;;;;;;5470219;26;20029;-65
2024/04/18 12:58:01;;;;;;;10.15;2.50;;;;;;;;;;5459688;26;20330;-65
2024/04/18 13:00:28;;;;;;;7.72;1.45;;;;;;;;;;5465250;26;20018;-66
2024/04/18 13:02:55;;;;;;;6.40;0.98;;;;;;;;;;5432679;26;20043;-64
2024/04/18 13:05:21;;;;;;;13.85;2.65;;;;;;;;;;5474145;26;19994;-65
2024/04/18 13:07:47;;;;;;;12.23;1.60;;;;;;;;;;5480871;26;20013;-65
2024/04/18 13:10:14;;;;;;;8.13;1.65;;;;;;;;;;5470428;26;20030;-64
2024/04/18 13:12:40;;;;;;;9.43;2.50;;;;;;;;;;5467838;26;19994;-64
2024/04/18 13:15:06;;;;;;;12.75;2.00;;;;;;;;;;5469154;26;20006;-65
2024/04/18 13:17:33;;;;;;;8.02;1.40;;;;;;;;;;5475954;26;20122;-64
2024/04/18 13:20:01;;;;;;;10.25;1.50;;;;;;;;;;5463128;26;20327;-65
2024/04/18 13:22:28;;;;;;;10.27;1.77;;;;;;;;;;5465756;26;20066;-65
2024/04/18 13:24:54;;;;;;;9.02;1.30;;;;;;;;;;5463735;26;20013;-65
2024/04/18 13:27:21;;;;;;;12.77;2.50;;;;;;;;;;5441946;26;20513;-65
2024/04/18 13:29:48;;;;;;;8.40;1.60;;;;;;;;;;5488607;26;20103;-65
2024/04/18 13:32:14;;;;;;;14.25;2.45;;;;;;;;;;5482666;26;20022;-65
2024/04/18 13:34:40;;;;;;;13.20;2.78;;;;;;;;;;5489563;26;19994;-64
2024/04/18 13:37:07;;;;;;;12.48;1.50;;;;;;;;;;5495317;26;20386;-64
2024/04/18 13:39:33;;;;;;;13.45;1.73;;;;;;;;;;5491312;26;20009;-64
2024/04/18 13:41:59;;;;;;;12.00;1.85;;;;;;;;;;5483742;26;20386;-64
2024/04/18 13:44:25;;;;;;;11.00;1.50;;;;;;;;;;5440615;26;20002;-64
2024/04/18 13:46:52;;;;;;;9.60;1.90;;;;;;;;;;5463621;26;19995;-64
2024/04/18 13:49:18;;;;;;;5.65;1.00;;;;;;;;;;5436038;26;19994;-64
2024/04/18 13:51:44;;;;;;;5.88;1.25;;;;;;;;;;5463981;26;20017;-64
2024/04/18 13:54:11;;;;;;;11.13;1.52;;;;;;;;;;5437818;26;19998;-64
2024/04/18 13:56:37;;;;;;;10.65;1.88;;;;;;;;;;5436339;26;20009;-64
2024/04/18 13:59:03;;;;;;;11.45;1.92;;;;;;;;;;5463154;26;20079;-64
2024/04/18 14:01:31;;;;;;;12.40;1.70;;;;;;;;;;5460931;26;20086;-65
2024/04/18 14:03:57;;;;;;;9.88;1.40;;;;;;;;;;5468922;26;19998;-64
2024/04/18 14:06:25;;;;;;;7.15;1.23;;;;;;;;;;5471385;26;19995;-65
2024/04/18 14:08:51;;;;;;;9.10;1.67;;;;;;;;;;5459431;26;20009;-65
2024/04/18 14:11:18;;;;;;;6.97;1.48;;;;;;;;;;5455347;26;19999;-65
2024/04/18 14:13:44;;;;;;;9.43;1.45;;;;;;;;;;5462550;26;20009;-64
2024/04/18 14:18:57;;;;;;;12.00;1.50;;;;;;;;;;5471493;26;20016;-64
2024/04/18 14:21:24;;;;;;;10.63;1.38;;;;;;;;;;5472361;26;20811;-64
2024/04/18 14:23:50;;;;;;;9.73;1.30;;;;;;;;;;5463498;26;20499;-64
2024/04/18 14:26:16;;;;;;;12.80;1.70;;;;;;;;;;5458340;26;19995;-64
2024/04/18 14:28:43;;;;;;;10.45;1.52;;;;;;;;;;5468149;26;20141;-64
2024/04/18 14:31:09;;;;;;;11.32;1.80;;;;;;;;;;5465458;26;19994;-64
2024/04/18 14:33:35;;;;;;;11.10;1.83;;;;;;;;;;5456292;26;20119;-65
2024/04/18 14:36:02;;;;;;;13.07;1.40;;;;;;;;;;5459976;26;19999;-64
2024/04/18 14:38:28;;;;;;;7.50;1.60;;;;;;;;;;5460255;26;20406;-64
2024/04/18 14:40:55;;;;;;;10.75;1.80;;;;;;;;;;5464504;26;19995;-64
2024/04/18 14:43:22;;;;;;;13.45;1.70;;;;;;;;;;5471521;26;20101;-64
2024/04/18 14:45:49;;;;;;;8.40;1.50;;;;;;;;;;5464861;26;20457;-64